sensor_id;sensor_type;location;lat;lon;timestamp;P1;durP1;ratioP1;P2;durP2;ratioP2
70073;SDS011;57445;51.058;3.698;2023-07-22T00:01:29;13.07;;;8.02;;
70073;SDS011;57445;51.058;3.698;2023-07-22T00:03:57;13.48;;;8.65;;
70073;SDS011;57445;51.058;3.698;2023-07-22T00:06:25;12.80;;;8.20;;
70073;SDS011;57445;51.058;3.698;2023-07-22T00:08:54;13.00;;;8.48;;
70073;SDS011;57445;51.058;3.698;2023-07-22T00:11:22;16.20;;;9.30;;
70073;SDS011;57445;51.058;3.698;2023-07-22T00:13:49;17.50;;;9.43;;
70073;SDS011;57445;51.058;3.698;2023-07-22T00:16:17;16.73;;;9.27;;
70073;SDS011;57445;51.058;3.698;2023-07-22T00:18:45;12.68;;;7.90;;
70073;SDS011;57445;51.058;3.698;2023-07-22T00:21:13;14.25;;;9.02;;
70073;SDS011;57445;51.058;3.698;2023-07-22T00:23:41;16.10;;;8.82;;
70073;SDS011;57445;51.058;3.698;2023-07-22T00:26:10;15.38;;;8.77;;
70073;SDS011;57445;51.058;3.698;2023-07-22T00:28:37;14.90;;;9.02;;
70073;SDS011;57445;51.058;3.698;2023-07-22T00:31:05;15.52;;;8.98;;
70073;SDS011;57445;51.058;3.698;2023-07-22T00:33:32;15.18;;;8.60;;
70073;SDS011;57445;51.058;3.698;2023-07-22T00:36:00;16.85;;;9.68;;
70073;SDS011;57445;51.058;3.698;2023-07-22T00:38:27;16.88;;;9.13;;
70073;SDS011;57445;51.058;3.698;2023-07-22T00:40:58;16.30;;;9.70;;
70073;SDS011;57445;51.058;3.698;2023-07-22T00:43:27;16.13;;;8.90;;
70073;SDS011;57445;51.058;3.698;2023-07-22T00:45:54;15.82;;;8.80;;
70073;SDS011;57445;51.058;3.698;2023-07-22T00:48:21;15.07;;;8.90;;
70073;SDS011;57445;51.058;3.698;2023-07-22T00:50:49;16.67;;;9.52;;
70073;SDS011;57445;51.058;3.698;2023-07-22T00:53:17;17.52;;;9.23;;
70073;SDS011;57445;51.058;3.698;2023-07-22T00:55:45;14.73;;;8.48;;
70073;SDS011;57445;51.058;3.698;2023-07-22T00:58:13;15.60;;;8.55;;
70073;SDS011;57445;51.058;3.698;2023-07-22T01:00:42;17.55;;;9.40;;
70073;SDS011;57445;51.058;3.698;2023-07-22T01:03:09;14.23;;;8.60;;
70073;SDS011;57445;51.058;3.698;2023-07-22T01:05:38;15.07;;;9.38;;
70073;SDS011;57445;51.058;3.698;2023-07-22T01:08:07;16.02;;;9.25;;
70073;SDS011;57445;51.058;3.698;2023-07-22T01:10:35;16.52;;;8.77;;
70073;SDS011;57445;51.058;3.698;2023-07-22T01:13:03;14.15;;;9.15;;
70073;SDS011;57445;51.058;3.698;2023-07-22T01:15:31;15.90;;;9.02;;
70073;SDS011;57445;51.058;3.698;2023-07-22T01:18:01;17.17;;;9.70;;
70073;SDS011;57445;51.058;3.698;2023-07-22T01:20:30;17.45;;;9.43;;
70073;SDS011;57445;51.058;3.698;2023-07-22T01:22:59;15.77;;;8.98;;
70073;SDS011;57445;51.058;3.698;2023-07-22T01:25:27;14.52;;;9.25;;
70073;SDS011;57445;51.058;3.698;2023-07-22T01:27:55;20.38;;;9.40;;
70073;SDS011;57445;51.058;3.698;2023-07-22T01:30:23;15.05;;;9.10;;
70073;SDS011;57445;51.058;3.698;2023-07-22T01:32:50;16.05;;;9.80;;
70073;SDS011;57445;51.058;3.698;2023-07-22T01:35:18;15.88;;;9.18;;
70073;SDS011;57445;51.058;3.698;2023-07-22T01:37:46;15.43;;;9.27;;
70073;SDS011;57445;51.058;3.698;2023-07-22T01:40:15;16.98;;;9.23;;
70073;SDS011;57445;51.058;3.698;2023-07-22T01:42:43;15.75;;;9.45;;
70073;SDS011;57445;51.058;3.698;2023-07-22T01:45:11;15.13;;;9.50;;
70073;SDS011;57445;51.058;3.698;2023-07-22T01:47:39;15.70;;;9.88;;
70073;SDS011;57445;51.058;3.698;2023-07-22T01:50:07;14.07;;;9.25;;
70073;SDS011;57445;51.058;3.698;2023-07-22T01:52:35;14.85;;;9.63;;
70073;SDS011;57445;51.058;3.698;2023-07-22T01:55:03;15.38;;;9.13;;
70073;SDS011;57445;51.058;3.698;2023-07-22T01:57:34;16.90;;;9.73;;
70073;SDS011;57445;51.058;3.698;2023-07-22T02:00:01;16.20;;;10.13;;
70073;SDS011;57445;51.058;3.698;2023-07-22T02:02:30;17.08;;;9.63;;
70073;SDS011;57445;51.058;3.698;2023-07-22T02:04:58;18.45;;;9.65;;
70073;SDS011;57445;51.058;3.698;2023-07-22T02:07:28;18.52;;;9.93;;
70073;SDS011;57445;51.058;3.698;2023-07-22T02:09:57;14.57;;;9.52;;
70073;SDS011;57445;51.058;3.698;2023-07-22T02:12:24;18.10;;;10.23;;
70073;SDS011;57445;51.058;3.698;2023-07-22T02:14:53;15.45;;;9.68;;
70073;SDS011;57445;51.058;3.698;2023-07-22T02:17:21;18.73;;;10.30;;
70073;SDS011;57445;51.058;3.698;2023-07-22T02:19:49;18.17;;;9.32;;
70073;SDS011;57445;51.058;3.698;2023-07-22T02:22:17;18.58;;;10.27;;
70073;SDS011;57445;51.058;3.698;2023-07-22T02:24:44;19.75;;;10.10;;
70073;SDS011;57445;51.058;3.698;2023-07-22T02:27:12;17.17;;;9.38;;
70073;SDS011;57445;51.058;3.698;2023-07-22T02:29:40;16.05;;;10.35;;
70073;SDS011;57445;51.058;3.698;2023-07-22T02:32:09;15.45;;;9.60;;
70073;SDS011;57445;51.058;3.698;2023-07-22T02:34:36;15.77;;;9.70;;
70073;SDS011;57445;51.058;3.698;2023-07-22T02:37:04;14.23;;;8.88;;
70073;SDS011;57445;51.058;3.698;2023-07-22T02:39:32;17.77;;;9.52;;
70073;SDS011;57445;51.058;3.698;2023-07-22T02:42:00;14.15;;;8.77;;
70073;SDS011;57445;51.058;3.698;2023-07-22T02:44:27;17.00;;;10.38;;
70073;SDS011;57445;51.058;3.698;2023-07-22T02:46:55;15.50;;;9.02;;
70073;SDS011;57445;51.058;3.698;2023-07-22T02:49:24;14.50;;;9.07;;
70073;SDS011;57445;51.058;3.698;2023-07-22T02:51:54;19.75;;;10.85;;
70073;SDS011;57445;51.058;3.698;2023-07-22T02:54:22;20.08;;;10.88;;
70073;SDS011;57445;51.058;3.698;2023-07-22T02:56:52;17.63;;;10.18;;
70073;SDS011;57445;51.058;3.698;2023-07-22T02:59:20;14.63;;;9.38;;
70073;SDS011;57445;51.058;3.698;2023-07-22T03:01:47;15.90;;;9.55;;
70073;SDS011;57445;51.058;3.698;2023-07-22T03:04:15;15.27;;;10.15;;
70073;SDS011;57445;51.058;3.698;2023-07-22T03:06:44;19.20;;;10.57;;
70073;SDS011;57445;51.058;3.698;2023-07-22T03:09:12;17.33;;;10.30;;
70073;SDS011;57445;51.058;3.698;2023-07-22T03:11:40;15.98;;;10.02;;
70073;SDS011;57445;51.058;3.698;2023-07-22T03:14:07;16.63;;;10.05;;
70073;SDS011;57445;51.058;3.698;2023-07-22T03:16:35;17.83;;;10.45;;
70073;SDS011;57445;51.058;3.698;2023-07-22T03:19:02;20.85;;;11.30;;
70073;SDS011;57445;51.058;3.698;2023-07-22T03:21:30;17.73;;;9.85;;
70073;SDS011;57445;51.058;3.698;2023-07-22T03:23:59;16.95;;;10.95;;
70073;SDS011;57445;51.058;3.698;2023-07-22T03:26:26;17.90;;;10.05;;
70073;SDS011;57445;51.058;3.698;2023-07-22T03:28:54;18.25;;;10.05;;
70073;SDS011;57445;51.058;3.698;2023-07-22T03:31:22;21.63;;;10.70;;
70073;SDS011;57445;51.058;3.698;2023-07-22T03:33:50;15.82;;;10.05;;
70073;SDS011;57445;51.058;3.698;2023-07-22T03:36:18;18.33;;;10.93;;
70073;SDS011;57445;51.058;3.698;2023-07-22T03:38:46;19.80;;;11.60;;
70073;SDS011;57445;51.058;3.698;2023-07-22T03:41:15;20.65;;;11.10;;
70073;SDS011;57445;51.058;3.698;2023-07-22T03:43:43;18.38;;;10.73;;
70073;SDS011;57445;51.058;3.698;2023-07-22T03:46:10;23.77;;;10.80;;
70073;SDS011;57445;51.058;3.698;2023-07-22T03:48:38;16.90;;;10.15;;
70073;SDS011;57445;51.058;3.698;2023-07-22T03:51:05;14.07;;;8.85;;
70073;SDS011;57445;51.058;3.698;2023-07-22T03:53:33;18.23;;;10.30;;
70073;SDS011;57445;51.058;3.698;2023-07-22T03:56:00;15.85;;;9.40;;
70073;SDS011;57445;51.058;3.698;2023-07-22T03:58:30;16.90;;;10.43;;
70073;SDS011;57445;51.058;3.698;2023-07-22T04:00:57;20.92;;;10.65;;
70073;SDS011;57445;51.058;3.698;2023-07-22T04:03:25;17.67;;;10.88;;
70073;SDS011;57445;51.058;3.698;2023-07-22T04:05:55;15.73;;;10.18;;
70073;SDS011;57445;51.058;3.698;2023-07-22T04:08:23;19.85;;;11.10;;
70073;SDS011;57445;51.058;3.698;2023-07-22T04:10:51;17.02;;;10.52;;
70073;SDS011;57445;51.058;3.698;2023-07-22T04:13:19;15.88;;;9.82;;
70073;SDS011;57445;51.058;3.698;2023-07-22T04:15:48;19.50;;;10.98;;
70073;SDS011;57445;51.058;3.698;2023-07-22T04:18:16;21.35;;;11.05;;
70073;SDS011;57445;51.058;3.698;2023-07-22T04:20:45;16.73;;;9.85;;
70073;SDS011;57445;51.058;3.698;2023-07-22T04:23:13;15.05;;;9.45;;
70073;SDS011;57445;51.058;3.698;2023-07-22T04:25:41;21.50;;;10.73;;
70073;SDS011;57445;51.058;3.698;2023-07-22T04:28:09;21.02;;;9.82;;
70073;SDS011;57445;51.058;3.698;2023-07-22T04:30:38;19.38;;;10.43;;
70073;SDS011;57445;51.058;3.698;2023-07-22T04:33:08;16.48;;;9.63;;
70073;SDS011;57445;51.058;3.698;2023-07-22T04:35:37;17.65;;;9.85;;
70073;SDS011;57445;51.058;3.698;2023-07-22T04:38:05;17.75;;;10.25;;
70073;SDS011;57445;51.058;3.698;2023-07-22T04:40:33;18.08;;;9.55;;
70073;SDS011;57445;51.058;3.698;2023-07-22T04:43:01;18.90;;;10.13;;
70073;SDS011;57445;51.058;3.698;2023-07-22T04:45:29;16.92;;;10.25;;
70073;SDS011;57445;51.058;3.698;2023-07-22T04:47:56;17.63;;;10.20;;
70073;SDS011;57445;51.058;3.698;2023-07-22T04:50:25;19.20;;;10.35;;
70073;SDS011;57445;51.058;3.698;2023-07-22T04:52:53;18.67;;;10.00;;
70073;SDS011;57445;51.058;3.698;2023-07-22T04:55:22;18.42;;;10.07;;
70073;SDS011;57445;51.058;3.698;2023-07-22T04:57:49;17.67;;;10.13;;
70073;SDS011;57445;51.058;3.698;2023-07-22T05:00:17;19.45;;;9.68;;
70073;SDS011;57445;51.058;3.698;2023-07-22T05:02:45;16.92;;;9.52;;
70073;SDS011;57445;51.058;3.698;2023-07-22T05:05:14;18.52;;;9.98;;
70073;SDS011;57445;51.058;3.698;2023-07-22T05:07:44;15.05;;;9.48;;
70073;SDS011;57445;51.058;3.698;2023-07-22T05:10:14;18.13;;;9.77;;
70073;SDS011;57445;51.058;3.698;2023-07-22T05:12:42;18.10;;;10.02;;
70073;SDS011;57445;51.058;3.698;2023-07-22T05:15:10;18.17;;;9.75;;
70073;SDS011;57445;51.058;3.698;2023-07-22T05:17:38;18.15;;;9.55;;
70073;SDS011;57445;51.058;3.698;2023-07-22T05:20:08;17.67;;;8.70;;
70073;SDS011;57445;51.058;3.698;2023-07-22T05:22:36;16.95;;;9.23;;
70073;SDS011;57445;51.058;3.698;2023-07-22T05:25:06;17.85;;;9.35;;
70073;SDS011;57445;51.058;3.698;2023-07-22T05:27:35;19.48;;;9.00;;
70073;SDS011;57445;51.058;3.698;2023-07-22T05:30:03;17.20;;;8.95;;
70073;SDS011;57445;51.058;3.698;2023-07-22T05:32:31;15.63;;;7.97;;
70073;SDS011;57445;51.058;3.698;2023-07-22T05:34:59;14.93;;;8.15;;
70073;SDS011;57445;51.058;3.698;2023-07-22T05:37:27;17.38;;;9.00;;
70073;SDS011;57445;51.058;3.698;2023-07-22T05:39:54;20.67;;;9.20;;
70073;SDS011;57445;51.058;3.698;2023-07-22T05:42:24;17.00;;;8.50;;
70073;SDS011;57445;51.058;3.698;2023-07-22T05:44:53;12.55;;;7.47;;
70073;SDS011;57445;51.058;3.698;2023-07-22T05:47:21;16.92;;;8.20;;
70073;SDS011;57445;51.058;3.698;2023-07-22T05:49:49;14.02;;;7.50;;
70073;SDS011;57445;51.058;3.698;2023-07-22T05:52:16;15.18;;;7.22;;
70073;SDS011;57445;51.058;3.698;2023-07-22T05:54:44;16.15;;;7.93;;
70073;SDS011;57445;51.058;3.698;2023-07-22T05:57:12;17.30;;;7.57;;
70073;SDS011;57445;51.058;3.698;2023-07-22T05:59:40;15.13;;;7.68;;
70073;SDS011;57445;51.058;3.698;2023-07-22T06:02:08;12.23;;;7.28;;
70073;SDS011;57445;51.058;3.698;2023-07-22T06:04:36;11.55;;;6.65;;
70073;SDS011;57445;51.058;3.698;2023-07-22T06:07:05;11.82;;;6.35;;
70073;SDS011;57445;51.058;3.698;2023-07-22T06:09:32;14.70;;;6.50;;
70073;SDS011;57445;51.058;3.698;2023-07-22T06:12:04;12.52;;;6.68;;
70073;SDS011;57445;51.058;3.698;2023-07-22T06:14:31;12.23;;;6.13;;
70073;SDS011;57445;51.058;3.698;2023-07-22T06:17:01;15.57;;;6.22;;
70073;SDS011;57445;51.058;3.698;2023-07-22T06:19:28;12.35;;;6.25;;
70073;SDS011;57445;51.058;3.698;2023-07-22T06:21:56;14.27;;;7.03;;
70073;SDS011;57445;51.058;3.698;2023-07-22T06:24:24;15.18;;;6.70;;
70073;SDS011;57445;51.058;3.698;2023-07-22T06:26:51;12.73;;;6.53;;
70073;SDS011;57445;51.058;3.698;2023-07-22T06:29:19;12.15;;;6.00;;
70073;SDS011;57445;51.058;3.698;2023-07-22T06:31:46;17.67;;;6.20;;
70073;SDS011;57445;51.058;3.698;2023-07-22T06:34:15;14.52;;;6.03;;
70073;SDS011;57445;51.058;3.698;2023-07-22T06:36:43;14.52;;;6.28;;
70073;SDS011;57445;51.058;3.698;2023-07-22T06:39:10;9.10;;;5.00;;
70073;SDS011;57445;51.058;3.698;2023-07-22T06:41:38;13.70;;;5.90;;
70073;SDS011;57445;51.058;3.698;2023-07-22T06:44:05;10.23;;;5.20;;
70073;SDS011;57445;51.058;3.698;2023-07-22T06:46:33;13.07;;;5.90;;
70073;SDS011;57445;51.058;3.698;2023-07-22T06:49:00;9.80;;;5.07;;
70073;SDS011;57445;51.058;3.698;2023-07-22T06:51:30;11.20;;;5.82;;
70073;SDS011;57445;51.058;3.698;2023-07-22T06:53:57;10.43;;;5.40;;
70073;SDS011;57445;51.058;3.698;2023-07-22T06:56:25;10.82;;;4.70;;
70073;SDS011;57445;51.058;3.698;2023-07-22T06:58:52;9.43;;;5.07;;
70073;SDS011;57445;51.058;3.698;2023-07-22T07:01:20;10.50;;;5.03;;
70073;SDS011;57445;51.058;3.698;2023-07-22T07:03:48;11.90;;;4.88;;
70073;SDS011;57445;51.058;3.698;2023-07-22T07:06:16;12.80;;;4.75;;
70073;SDS011;57445;51.058;3.698;2023-07-22T07:08:44;8.75;;;4.65;;
70073;SDS011;57445;51.058;3.698;2023-07-22T07:11:12;11.98;;;4.70;;
70073;SDS011;57445;51.058;3.698;2023-07-22T07:13:40;11.38;;;5.03;;
70073;SDS011;57445;51.058;3.698;2023-07-22T07:16:20;11.30;;;5.25;;
70073;SDS011;57445;51.058;3.698;2023-07-22T07:18:49;9.82;;;4.45;;
70073;SDS011;57445;51.058;3.698;2023-07-22T07:21:16;10.07;;;4.93;;
70073;SDS011;57445;51.058;3.698;2023-07-22T07:23:45;11.10;;;5.45;;
70073;SDS011;57445;51.058;3.698;2023-07-22T07:26:14;11.63;;;4.75;;
70073;SDS011;57445;51.058;3.698;2023-07-22T07:28:41;10.48;;;5.40;;
70073;SDS011;57445;51.058;3.698;2023-07-22T07:31:09;10.95;;;5.10;;
70073;SDS011;57445;51.058;3.698;2023-07-22T07:33:37;11.15;;;5.63;;
70073;SDS011;57445;51.058;3.698;2023-07-22T07:36:04;9.70;;;5.22;;
70073;SDS011;57445;51.058;3.698;2023-07-22T07:38:32;9.57;;;5.00;;
70073;SDS011;57445;51.058;3.698;2023-07-22T07:41:01;12.25;;;4.85;;
70073;SDS011;57445;51.058;3.698;2023-07-22T07:43:30;12.00;;;4.95;;
70073;SDS011;57445;51.058;3.698;2023-07-22T07:48:44;12.38;;;5.18;;
70073;SDS011;57445;51.058;3.698;2023-07-22T07:51:13;16.15;;;5.47;;
70073;SDS011;57445;51.058;3.698;2023-07-22T07:53:41;9.43;;;4.60;;
70073;SDS011;57445;51.058;3.698;2023-07-22T07:56:11;9.55;;;4.93;;
70073;SDS011;57445;51.058;3.698;2023-07-22T07:58:39;10.90;;;5.18;;
70073;SDS011;57445;51.058;3.698;2023-07-22T08:01:07;13.40;;;5.38;;
70073;SDS011;57445;51.058;3.698;2023-07-22T08:03:35;9.95;;;5.03;;
70073;SDS011;57445;51.058;3.698;2023-07-22T08:06:03;12.15;;;5.35;;
70073;SDS011;57445;51.058;3.698;2023-07-22T08:08:33;9.57;;;4.82;;
70073;SDS011;57445;51.058;3.698;2023-07-22T08:11:01;10.75;;;4.90;;
70073;SDS011;57445;51.058;3.698;2023-07-22T08:13:31;8.52;;;4.53;;
70073;SDS011;57445;51.058;3.698;2023-07-22T08:15:59;9.05;;;4.18;;
70073;SDS011;57445;51.058;3.698;2023-07-22T08:18:28;11.13;;;5.03;;
70073;SDS011;57445;51.058;3.698;2023-07-22T08:20:56;9.15;;;4.78;;
70073;SDS011;57445;51.058;3.698;2023-07-22T08:23:24;8.95;;;4.25;;
70073;SDS011;57445;51.058;3.698;2023-07-22T08:25:52;7.30;;;4.20;;
70073;SDS011;57445;51.058;3.698;2023-07-22T08:28:19;9.00;;;4.47;;
70073;SDS011;57445;51.058;3.698;2023-07-22T08:30:48;9.10;;;4.53;;
70073;SDS011;57445;51.058;3.698;2023-07-22T08:33:16;9.63;;;4.57;;
70073;SDS011;57445;51.058;3.698;2023-07-22T08:35:44;9.20;;;5.00;;
70073;SDS011;57445;51.058;3.698;2023-07-22T08:38:13;9.40;;;4.30;;
70073;SDS011;57445;51.058;3.698;2023-07-22T08:40:41;10.63;;;4.70;;
70073;SDS011;57445;51.058;3.698;2023-07-22T08:43:09;8.75;;;4.30;;
70073;SDS011;57445;51.058;3.698;2023-07-22T08:45:38;7.72;;;4.00;;
70073;SDS011;57445;51.058;3.698;2023-07-22T08:48:08;12.10;;;4.13;;
70073;SDS011;57445;51.058;3.698;2023-07-22T08:50:41;7.55;;;3.97;;
70073;SDS011;57445;51.058;3.698;2023-07-22T08:53:16;9.48;;;3.90;;
70073;SDS011;57445;51.058;3.698;2023-07-22T08:55:45;8.40;;;3.88;;
70073;SDS011;57445;51.058;3.698;2023-07-22T08:58:13;8.50;;;3.60;;
70073;SDS011;57445;51.058;3.698;2023-07-22T09:00:42;8.07;;;4.00;;
70073;SDS011;57445;51.058;3.698;2023-07-22T09:03:12;7.57;;;3.80;;
70073;SDS011;57445;51.058;3.698;2023-07-22T09:05:40;7.57;;;3.65;;
70073;SDS011;57445;51.058;3.698;2023-07-22T09:08:10;6.65;;;2.85;;
70073;SDS011;57445;51.058;3.698;2023-07-22T09:10:38;7.65;;;2.80;;
70073;SDS011;57445;51.058;3.698;2023-07-22T09:13:06;7.55;;;2.85;;
70073;SDS011;57445;51.058;3.698;2023-07-22T09:15:34;7.95;;;2.60;;
70073;SDS011;57445;51.058;3.698;2023-07-22T09:18:04;7.70;;;2.63;;
70073;SDS011;57445;51.058;3.698;2023-07-22T09:20:33;5.10;;;2.35;;
70073;SDS011;57445;51.058;3.698;2023-07-22T09:23:01;5.97;;;2.67;;
70073;SDS011;57445;51.058;3.698;2023-07-22T09:25:28;5.03;;;2.53;;
70073;SDS011;57445;51.058;3.698;2023-07-22T09:27:58;6.47;;;2.40;;
70073;SDS011;57445;51.058;3.698;2023-07-22T09:30:27;6.03;;;2.50;;
70073;SDS011;57445;51.058;3.698;2023-07-22T09:32:55;4.72;;;2.55;;
70073;SDS011;57445;51.058;3.698;2023-07-22T09:35:25;6.20;;;2.40;;
70073;SDS011;57445;51.058;3.698;2023-07-22T09:37:56;5.22;;;2.30;;
70073;SDS011;57445;51.058;3.698;2023-07-22T09:40:25;5.97;;;2.22;;
70073;SDS011;57445;51.058;3.698;2023-07-22T09:42:54;5.55;;;2.42;;
70073;SDS011;57445;51.058;3.698;2023-07-22T09:45:28;10.40;;;2.85;;
70073;SDS011;57445;51.058;3.698;2023-07-22T09:47:56;5.43;;;2.22;;
70073;SDS011;57445;51.058;3.698;2023-07-22T09:50:26;3.83;;;1.83;;
70073;SDS011;57445;51.058;3.698;2023-07-22T09:52:56;5.90;;;2.28;;
70073;SDS011;57445;51.058;3.698;2023-07-22T09:55:25;8.10;;;2.45;;
70073;SDS011;57445;51.058;3.698;2023-07-22T09:57:55;6.95;;;2.50;;
70073;SDS011;57445;51.058;3.698;2023-07-22T10:00:24;4.93;;;2.22;;
70073;SDS011;57445;51.058;3.698;2023-07-22T10:02:56;4.35;;;1.92;;
70073;SDS011;57445;51.058;3.698;2023-07-22T10:05:25;5.00;;;2.13;;
70073;SDS011;57445;51.058;3.698;2023-07-22T10:07:56;7.35;;;2.30;;
70073;SDS011;57445;51.058;3.698;2023-07-22T10:10:25;5.30;;;2.00;;
70073;SDS011;57445;51.058;3.698;2023-07-22T10:12:57;8.30;;;2.20;;
70073;SDS011;57445;51.058;3.698;2023-07-22T10:15:25;5.60;;;2.00;;
70073;SDS011;57445;51.058;3.698;2023-07-22T10:17:56;5.03;;;1.80;;
70073;SDS011;57445;51.058;3.698;2023-07-22T10:20:24;3.50;;;1.52;;
70073;SDS011;57445;51.058;3.698;2023-07-22T10:22:51;4.07;;;1.80;;
70073;SDS011;57445;51.058;3.698;2023-07-22T10:25:21;4.57;;;1.90;;
70073;SDS011;57445;51.058;3.698;2023-07-22T10:27:49;3.65;;;1.83;;
70073;SDS011;57445;51.058;3.698;2023-07-22T10:30:18;4.10;;;1.88;;
70073;SDS011;57445;51.058;3.698;2023-07-22T10:32:47;4.47;;;1.65;;
70073;SDS011;57445;51.058;3.698;2023-07-22T10:35:21;3.03;;;1.60;;
70073;SDS011;57445;51.058;3.698;2023-07-22T10:38:06;3.55;;;1.60;;
70073;SDS011;57445;51.058;3.698;2023-07-22T10:40:45;3.72;;;1.58;;
70073;SDS011;57445;51.058;3.698;2023-07-22T10:43:15;4.45;;;1.70;;
70073;SDS011;57445;51.058;3.698;2023-07-22T10:45:48;5.85;;;1.73;;
70073;SDS011;57445;51.058;3.698;2023-07-22T10:48:17;5.00;;;1.70;;
70073;SDS011;57445;51.058;3.698;2023-07-22T10:50:46;4.53;;;1.83;;
70073;SDS011;57445;51.058;3.698;2023-07-22T10:53:19;3.53;;;1.50;;
70073;SDS011;57445;51.058;3.698;2023-07-22T10:56:10;5.47;;;1.80;;
70073;SDS011;57445;51.058;3.698;2023-07-22T10:58:56;4.22;;;1.80;;
70073;SDS011;57445;51.058;3.698;2023-07-22T11:01:33;4.80;;;1.63;;
70073;SDS011;57445;51.058;3.698;2023-07-22T11:04:05;6.05;;;1.70;;
70073;SDS011;57445;51.058;3.698;2023-07-22T11:06:34;4.68;;;1.75;;
70073;SDS011;57445;51.058;3.698;2023-07-22T11:09:02;4.13;;;1.75;;
70073;SDS011;57445;51.058;3.698;2023-07-22T11:11:38;4.05;;;1.65;;
70073;SDS011;57445;51.058;3.698;2023-07-22T11:14:13;3.70;;;1.50;;
70073;SDS011;57445;51.058;3.698;2023-07-22T11:16:42;3.45;;;1.60;;
70073;SDS011;57445;51.058;3.698;2023-07-22T11:19:12;4.28;;;1.70;;
70073;SDS011;57445;51.058;3.698;2023-07-22T11:21:40;3.97;;;1.73;;
70073;SDS011;57445;51.058;3.698;2023-07-22T11:24:08;3.53;;;1.75;;
70073;SDS011;57445;51.058;3.698;2023-07-22T11:26:38;4.43;;;1.98;;
70073;SDS011;57445;51.058;3.698;2023-07-22T11:29:07;4.95;;;1.80;;
70073;SDS011;57445;51.058;3.698;2023-07-22T11:31:36;4.47;;;1.80;;
70073;SDS011;57445;51.058;3.698;2023-07-22T11:34:08;4.80;;;1.70;;
70073;SDS011;57445;51.058;3.698;2023-07-22T11:36:36;6.10;;;2.00;;
70073;SDS011;57445;51.058;3.698;2023-07-22T11:39:04;4.40;;;1.80;;
70073;SDS011;57445;51.058;3.698;2023-07-22T11:41:33;4.43;;;1.95;;
70073;SDS011;57445;51.058;3.698;2023-07-22T11:44:03;5.47;;;2.00;;
70073;SDS011;57445;51.058;3.698;2023-07-22T11:46:35;4.50;;;2.00;;
70073;SDS011;57445;51.058;3.698;2023-07-22T11:49:03;4.00;;;1.88;;
70073;SDS011;57445;51.058;3.698;2023-07-22T11:51:31;5.30;;;2.13;;
70073;SDS011;57445;51.058;3.698;2023-07-22T11:53:59;4.97;;;2.03;;
70073;SDS011;57445;51.058;3.698;2023-07-22T11:56:27;5.88;;;2.10;;
70073;SDS011;57445;51.058;3.698;2023-07-22T11:58:56;5.60;;;2.13;;
70073;SDS011;57445;51.058;3.698;2023-07-22T12:01:28;5.28;;;2.10;;
70073;SDS011;57445;51.058;3.698;2023-07-22T12:03:58;7.13;;;2.15;;
70073;SDS011;57445;51.058;3.698;2023-07-22T12:06:27;5.85;;;2.20;;
70073;SDS011;57445;51.058;3.698;2023-07-22T12:08:54;4.70;;;2.00;;
70073;SDS011;57445;51.058;3.698;2023-07-22T12:11:23;5.30;;;2.15;;
70073;SDS011;57445;51.058;3.698;2023-07-22T12:14:03;7.20;;;2.20;;
70073;SDS011;57445;51.058;3.698;2023-07-22T12:16:35;6.30;;;2.17;;
70073;SDS011;57445;51.058;3.698;2023-07-22T12:19:03;4.10;;;1.88;;
70073;SDS011;57445;51.058;3.698;2023-07-22T12:21:34;5.63;;;2.03;;
70073;SDS011;57445;51.058;3.698;2023-07-22T12:24:02;6.40;;;2.03;;
70073;SDS011;57445;51.058;3.698;2023-07-22T12:26:31;5.05;;;1.92;;
70073;SDS011;57445;51.058;3.698;2023-07-22T12:28:58;5.95;;;2.10;;
70073;SDS011;57445;51.058;3.698;2023-07-22T12:31:26;3.65;;;1.50;;
70073;SDS011;57445;51.058;3.698;2023-07-22T12:33:55;5.18;;;1.92;;
70073;SDS011;57445;51.058;3.698;2023-07-22T12:36:23;6.18;;;1.85;;
70073;SDS011;57445;51.058;3.698;2023-07-22T12:38:51;4.65;;;1.95;;
70073;SDS011;57445;51.058;3.698;2023-07-22T12:41:18;3.55;;;1.83;;
70073;SDS011;57445;51.058;3.698;2023-07-22T12:43:46;5.53;;;2.20;;
70073;SDS011;57445;51.058;3.698;2023-07-22T12:46:15;5.80;;;1.98;;
70073;SDS011;57445;51.058;3.698;2023-07-22T12:48:42;6.53;;;2.17;;
70073;SDS011;57445;51.058;3.698;2023-07-22T12:51:11;5.30;;;2.22;;
70073;SDS011;57445;51.058;3.698;2023-07-22T12:53:39;6.93;;;2.22;;
70073;SDS011;57445;51.058;3.698;2023-07-22T12:56:07;5.03;;;1.90;;
70073;SDS011;57445;51.058;3.698;2023-07-22T12:58:35;3.83;;;2.00;;
70073;SDS011;57445;51.058;3.698;2023-07-22T13:01:02;5.38;;;2.15;;
70073;SDS011;57445;51.058;3.698;2023-07-22T13:03:30;4.97;;;1.83;;
70073;SDS011;57445;51.058;3.698;2023-07-22T13:05:58;5.30;;;1.77;;
70073;SDS011;57445;51.058;3.698;2023-07-22T13:08:27;6.40;;;2.10;;
70073;SDS011;57445;51.058;3.698;2023-07-22T13:10:54;4.70;;;2.00;;
70073;SDS011;57445;51.058;3.698;2023-07-22T13:13:22;6.40;;;2.03;;
70073;SDS011;57445;51.058;3.698;2023-07-22T13:15:49;4.93;;;1.90;;
70073;SDS011;57445;51.058;3.698;2023-07-22T13:18:17;5.45;;;1.80;;
70073;SDS011;57445;51.058;3.698;2023-07-22T13:20:48;4.90;;;2.10;;
70073;SDS011;57445;51.058;3.698;2023-07-22T13:23:15;4.63;;;1.90;;
70073;SDS011;57445;51.058;3.698;2023-07-22T13:25:44;6.13;;;1.83;;
70073;SDS011;57445;51.058;3.698;2023-07-22T13:28:12;4.35;;;1.83;;
70073;SDS011;57445;51.058;3.698;2023-07-22T13:30:45;7.60;;;2.00;;
70073;SDS011;57445;51.058;3.698;2023-07-22T13:33:13;5.72;;;1.80;;
70073;SDS011;57445;51.058;3.698;2023-07-22T13:35:41;4.95;;;2.00;;
70073;SDS011;57445;51.058;3.698;2023-07-22T13:38:08;4.03;;;1.63;;
70073;SDS011;57445;51.058;3.698;2023-07-22T13:40:36;4.72;;;1.70;;
70073;SDS011;57445;51.058;3.698;2023-07-22T13:43:05;4.53;;;1.92;;
70073;SDS011;57445;51.058;3.698;2023-07-22T13:45:33;5.18;;;2.05;;
70073;SDS011;57445;51.058;3.698;2023-07-22T13:48:00;5.47;;;2.10;;
70073;SDS011;57445;51.058;3.698;2023-07-22T13:50:28;8.55;;;2.05;;
70073;SDS011;57445;51.058;3.698;2023-07-22T13:52:56;6.53;;;1.77;;
70073;SDS011;57445;51.058;3.698;2023-07-22T13:55:24;4.95;;;1.90;;
70073;SDS011;57445;51.058;3.698;2023-07-22T13:57:52;5.10;;;1.70;;
70073;SDS011;57445;51.058;3.698;2023-07-22T14:00:21;4.72;;;1.80;;
70073;SDS011;57445;51.058;3.698;2023-07-22T14:02:49;4.90;;;1.70;;
70073;SDS011;57445;51.058;3.698;2023-07-22T14:05:16;5.63;;;2.00;;
70073;SDS011;57445;51.058;3.698;2023-07-22T14:07:44;6.05;;;2.22;;
70073;SDS011;57445;51.058;3.698;2023-07-22T14:10:12;5.30;;;2.15;;
70073;SDS011;57445;51.058;3.698;2023-07-22T14:12:39;4.60;;;1.85;;
70073;SDS011;57445;51.058;3.698;2023-07-22T14:15:07;6.10;;;1.98;;
70073;SDS011;57445;51.058;3.698;2023-07-22T14:17:37;5.47;;;2.20;;
70073;SDS011;57445;51.058;3.698;2023-07-22T14:20:05;5.30;;;2.15;;
70073;SDS011;57445;51.058;3.698;2023-07-22T14:22:33;6.15;;;2.22;;
70073;SDS011;57445;51.058;3.698;2023-07-22T14:25:01;7.43;;;2.20;;
70073;SDS011;57445;51.058;3.698;2023-07-22T14:27:29;4.43;;;2.05;;
70073;SDS011;57445;51.058;3.698;2023-07-22T14:29:57;5.53;;;2.10;;
70073;SDS011;57445;51.058;3.698;2023-07-22T14:32:24;4.75;;;2.20;;
70073;SDS011;57445;51.058;3.698;2023-07-22T14:34:53;4.53;;;1.83;;
70073;SDS011;57445;51.058;3.698;2023-07-22T14:37:21;5.53;;;2.30;;
70073;SDS011;57445;51.058;3.698;2023-07-22T14:39:48;4.03;;;1.83;;
70073;SDS011;57445;51.058;3.698;2023-07-22T14:42:16;6.28;;;2.20;;
70073;SDS011;57445;51.058;3.698;2023-07-22T14:44:43;6.72;;;2.45;;
70073;SDS011;57445;51.058;3.698;2023-07-22T14:47:11;6.05;;;2.40;;
70073;SDS011;57445;51.058;3.698;2023-07-22T14:49:38;5.07;;;2.15;;